Time;durP1;ratioP1;P1;durP2;ratioP2;P2;SDS_P1;SDS_P2;PMS_P1;PMS_P2;Temp;Humidity;BMP_temperature;BMP_pressure;BME280_temperature;BME280_humidity;BME280_pressure;Samples;Min_cycle;Max_cycle;Signal;HPM_P1;HPM_P2
2022/09/06 00:00:40;;;;;;;5.63;3.10;;;17.70;99.90;;;;;;5035090;28;20026;-60
2022/09/06 00:03:07;;;;;;;10.35;3.97;;;17.70;99.90;;;;;;5038374;28;20069;-59
2022/09/06 00:05:35;;;;;;;11.93;3.60;;;17.70;99.90;;;;;;5005408;28;20053;-59
2022/09/06 00:08:02;;;;;;;6.00;2.83;;;17.70;99.90;;;;;;5038528;28;20022;-58
2022/09/06 00:10:30;;;;;;;9.52;2.80;;;17.70;99.90;;;;;;5038048;28;20033;-58
2022/09/06 00:13:04;;;;;;;6.63;3.08;;;17.70;99.90;;;;;;5021591;28;20034;-59
2022/09/06 00:15:31;;;;;;;8.50;3.63;;;17.60;99.90;;;;;;5037386;28;20159;-59
2022/09/06 00:17:59;;;;;;;9.20;3.53;;;17.60;99.90;;;;;;5021616;28;20022;-57
2022/09/06 00:20:27;;;;;;;6.57;3.35;;;17.60;99.90;;;;;;5021209;28;20053;-58
2022/09/06 00:22:58;;;;;;;5.53;3.53;;;17.50;99.90;;;;;;5038060;28;20030;-59
2022/09/06 00:25:25;;;;;;;5.85;3.58;;;17.50;99.90;;;;;;5035112;28;20053;-60
2022/09/06 00:27:57;;;;;;;6.20;4.03;;;17.50;99.90;;;;;;5037912;28;20038;-59
2022/09/06 00:30:24;;;;;;;7.47;3.75;;;17.50;99.90;;;;;;5021433;28;20030;-59
2022/09/06 00:32:50;;;;;;;11.68;4.95;;;17.50;99.90;;;;;;5037962;28;20030;-59
2022/09/06 00:35:18;;;;;;;6.57;3.78;;;17.40;99.90;;;;;;5038009;28;20026;-59
2022/09/06 00:37:44;;;;;;;6.35;4.18;;;17.40;99.90;;;;;;5038008;28;20061;-59
2022/09/06 00:40:11;;;;;;;5.95;4.03;;;17.40;99.90;;;;;;5037750;28;20030;-59
2022/09/06 00:42:38;;;;;;;8.20;4.30;;;17.40;99.90;;;;;;5037650;28;20038;-59
2022/09/06 00:45:06;;;;;;;11.68;4.40;;;17.40;99.90;;;;;;5020808;28;20260;-57
2022/09/06 00:47:34;;;;;;;7.38;4.28;;;17.40;99.90;;;;;;5020779;28;20026;-59
2022/09/06 00:50:01;;;;;;;6.20;3.97;;;17.30;99.90;;;;;;5020985;28;20037;-59
2022/09/06 00:52:27;;;;;;;8.07;3.95;;;17.40;99.90;;;;;;5037310;28;20030;-59
2022/09/06 00:54:54;;;;;;;8.63;4.85;;;17.30;99.90;;;;;;5037580;28;20049;-60
2022/09/06 00:57:25;;;;;;;11.27;5.03;;;17.30;99.90;;;;;;5020363;28;20030;-59
2022/09/06 00:59:53;;;;;;;11.02;5.18;;;17.30;99.90;;;;;;5005331;28;20030;-59
2022/09/06 01:02:20;;;;;;;6.45;4.28;;;17.30;99.90;;;;;;5020620;28;20065;-59
2022/09/06 01:04:47;;;;;;;5.82;4.55;;;17.20;99.90;;;;;;5026766;28;20052;-59
2022/09/06 01:07:22;;;;;;;10.55;4.13;;;17.20;99.90;;;;;;4671077;28;10000019;-59
2022/09/06 01:10:11;;;;;;;10.30;4.63;;;17.20;99.90;;;;;;5034422;28;20034;-59
2022/09/06 01:13:00;;;;;;;9.73;4.97;;;17.20;99.90;;;;;;5036395;28;20077;-59
2022/09/06 01:15:57;;;;;;;8.20;4.68;;;17.20;99.90;;;;;;5023224;28;20413;-60
2022/09/06 01:18:43;;;;;;;6.50;4.00;;;17.20;99.90;;;;;;5034857;28;20029;-59
2022/09/06 01:21:38;;;;;;;12.93;3.75;;;17.10;99.90;;;;;;5036984;28;20042;-59
2022/09/06 01:24:29;;;;;;;6.13;4.15;;;17.10;99.90;;;;;;5014535;28;20030;-60
2022/09/06 01:27:14;;;;;;;6.47;4.07;;;17.00;99.90;;;;;;5020188;28;20044;-59
2022/09/06 01:29:43;;;;;;;10.15;4.72;;;17.00;99.90;;;;;;5018228;28;20042;-59
2022/09/06 01:32:16;;;;;;;8.07;4.40;;;17.00;99.90;;;;;;5036358;28;20022;-59
2022/09/06 01:34:46;;;;;;;8.85;4.40;;;17.00;99.90;;;;;;5020082;28;20030;-59
2022/09/06 01:37:14;;;;;;;13.63;4.70;;;16.90;99.90;;;;;;5019821;28;20026;-59
2022/09/06 01:39:41;;;;;;;6.85;4.03;;;16.90;99.90;;;;;;5004267;28;20037;-59
2022/09/06 01:42:17;;;;;;;8.02;4.20;;;16.90;99.90;;;;;;5036189;28;20061;-58
2022/09/06 01:44:52;;;;;;;6.68;3.90;;;16.90;99.90;;;;;;5030854;28;20022;-59
2022/09/06 01:47:34;;;;;;;7.72;3.58;;;16.90;99.90;;;;;;5019620;28;20041;-59
2022/09/06 01:50:30;;;;;;;8.13;4.13;;;16.90;99.90;;;;;;5020220;28;20072;-60
2022/09/06 01:53:15;;;;;;;5.60;4.32;;;16.90;99.90;;;;;;5013864;28;20085;-59
2022/09/06 01:56:09;;;;;;;5.53;3.80;;;16.90;99.90;;;;;;5036825;28;20030;-59
2022/09/06 01:59:09;;;;;;;7.45;3.15;;;16.80;99.90;;;;;;5019364;28;20064;-59
2022/09/06 02:01:59;;;;;;;6.00;3.58;;;16.80;99.90;;;;;;5036240;28;20042;-58
2022/09/06 02:04:29;;;;;;;6.35;3.85;;;16.90;99.90;;;;;;5018443;28;20034;-59
2022/09/06 02:07:11;;;;;;;8.38;4.13;;;16.90;99.90;;;;;;5019410;28;20046;-59
2022/09/06 02:09:42;;;;;;;6.95;4.30;;;16.90;99.90;;;;;;5018666;28;20022;-59
2022/09/06 02:12:12;;;;;;;6.97;3.80;;;16.90;99.90;;;;;;5036155;28;20048;-59
2022/09/06 02:14:40;;;;;;;9.15;3.85;;;16.90;99.90;;;;;;5019737;28;20065;-59
2022/09/06 02:17:08;;;;;;;6.90;3.97;;;16.90;99.90;;;;;;5003732;28;20030;-59
2022/09/06 02:19:50;;;;;;;7.82;3.92;;;16.80;99.90;;;;;;5018396;28;20038;-58
2022/09/06 02:22:18;;;;;;;6.90;3.63;;;16.80;99.90;;;;;;5009309;28;20055;-58
2022/09/06 02:24:45;;;;;;;5.10;3.45;;;16.90;99.90;;;;;;5003862;28;20042;-58
2022/09/06 02:27:13;;;;;;;5.55;4.05;;;16.90;99.90;;;;;;4992115;28;20042;-59
2022/09/06 02:29:40;;;;;;;9.10;4.35;;;16.90;99.90;;;;;;5023190;28;20049;-59
2022/09/06 02:32:10;;;;;;;5.68;4.10;;;16.90;99.90;;;;;;5023299;28;20034;-58
2022/09/06 02:34:38;;;;;;;6.63;3.70;;;16.80;99.90;;;;;;5023056;28;20026;-58
2022/09/06 02:37:05;;;;;;;8.60;4.72;;;16.80;99.90;;;;;;5022985;28;20041;-58
2022/09/06 02:39:32;;;;;;;6.05;3.60;;;16.80;99.90;;;;;;5023186;28;20030;-59
2022/09/06 02:41:59;;;;;;;6.53;3.92;;;16.80;99.90;;;;;;5039718;28;20090;-59
2022/09/06 02:44:26;;;;;;;7.63;3.95;;;16.80;99.90;;;;;;5022994;28;20056;-56
2022/09/06 02:46:53;;;;;;;10.35;5.95;;;16.80;99.90;;;;;;5039906;28;20026;-60
2022/09/06 02:49:23;;;;;;;8.82;4.72;;;16.80;99.90;;;;;;5023380;28;20080;-60
2022/09/06 02:51:49;;;;;;;7.07;4.47;;;16.70;99.90;;;;;;5032795;28;20029;-58
2022/09/06 02:54:16;;;;;;;8.40;4.10;;;16.80;99.90;;;;;;5039552;28;20045;-60
2022/09/06 02:56:43;;;;;;;8.18;4.55;;;16.80;99.90;;;;;;5039391;28;20045;-60
2022/09/06 02:59:15;;;;;;;11.45;3.67;;;16.80;99.90;;;;;;5039681;28;20030;-59
2022/09/06 03:01:42;;;;;;;8.27;4.55;;;16.80;99.90;;;;;;5036221;28;20042;-59
2022/09/06 03:04:09;;;;;;;9.30;4.70;;;16.70;99.90;;;;;;5022796;28;20037;-60
2022/09/06 03:06:36;;;;;;;11.50;4.55;;;16.70;99.90;;;;;;5039598;28;20034;-59
2022/09/06 03:09:02;;;;;;;10.75;4.85;;;16.70;99.90;;;;;;5039118;28;20030;-58
2022/09/06 03:11:29;;;;;;;9.93;5.25;;;16.70;99.90;;;;;;5039253;28;20050;-60
2022/09/06 03:13:56;;;;;;;7.28;4.72;;;16.70;99.90;;;;;;5039450;28;20033;-59
2022/09/06 03:16:23;;;;;;;8.15;4.53;;;16.70;99.90;;;;;;5039255;28;20045;-59
2022/09/06 03:18:50;;;;;;;8.85;4.72;;;16.70;99.90;;;;;;5022605;28;20029;-59
2022/09/06 03:21:16;;;;;;;9.15;4.70;;;16.70;99.90;;;;;;5039193;28;20034;-59
2022/09/06 03:23:44;;;;;;;11.70;5.18;;;16.70;99.90;;;;;;5022468;28;20042;-60
2022/09/06 03:26:11;;;;;;;7.03;4.65;;;16.70;99.90;;;;;;5022436;28;20026;-60
2022/09/06 03:28:38;;;;;;;7.00;4.35;;;16.70;99.90;;;;;;5039117;28;20050;-59
2022/09/06 03:31:05;;;;;;;10.25;4.60;;;16.60;99.90;;;;;;5039110;28;20030;-59
2022/09/06 03:33:32;;;;;;;9.98;4.20;;;16.60;99.90;;;;;;5038088;28;20030;-59
2022/09/06 03:36:00;;;;;;;7.63;4.65;;;16.60;99.90;;;;;;5038903;28;20045;-60
2022/09/06 03:38:27;;;;;;;6.30;3.83;;;16.60;99.90;;;;;;5022389;28;20053;-60
2022/09/06 03:40:54;;;;;;;5.78;4.57;;;16.60;99.90;;;;;;5038763;28;20025;-57
2022/09/06 03:43:22;;;;;;;10.32;4.32;;;16.60;99.90;;;;;;5038778;28;20030;-59
2022/09/06 03:45:50;;;;;;;7.85;4.53;;;16.60;99.90;;;;;;5038867;28;20068;-59
2022/09/06 03:48:17;;;;;;;4.97;4.00;;;16.60;99.90;;;;;;5035489;28;20038;-59
2022/09/06 03:50:45;;;;;;;7.40;4.70;;;16.50;99.90;;;;;;5022259;28;20041;-60
2022/09/06 03:53:12;;;;;;;12.75;4.57;;;16.50;99.90;;;;;;5038208;28;20069;-63
2022/09/06 03:55:39;;;;;;;12.43;4.88;;;16.50;99.90;;;;;;5038463;28;20050;-60
2022/09/06 03:58:06;;;;;;;8.63;4.40;;;16.50;99.90;;;;;;5038350;28;21309;-58
2022/09/06 04:00:33;;;;;;;7.00;4.50;;;16.50;99.90;;;;;;5038789;28;20033;-59
2022/09/06 04:03:00;;;;;;;8.85;4.35;;;16.50;99.90;;;;;;5019416;28;20033;-59
2022/09/06 04:05:27;;;;;;;7.43;4.45;;;16.50;99.90;;;;;;5032707;28;20053;-59
2022/09/06 04:07:54;;;;;;;9.48;4.43;;;16.60;99.90;;;;;;5021499;28;20022;-59
2022/09/06 04:10:21;;;;;;;12.73;4.47;;;16.60;99.90;;;;;;5038387;28;20026;-59
2022/09/06 04:12:48;;;;;;;12.80;4.20;;;16.60;99.90;;;;;;5037904;28;20033;-57
2022/09/06 04:15:14;;;;;;;6.95;4.20;;;16.60;99.90;;;;;;5038250;28;20046;-58
2022/09/06 04:17:45;;;;;;;9.30;4.50;;;16.60;99.90;;;;;;5038067;28;20022;-59
2022/09/06 04:20:12;;;;;;;9.43;4.82;;;16.70;99.90;;;;;;5038135;28;20048;-59
2022/09/06 04:22:39;;;;;;;11.07;4.53;;;16.60;99.90;;;;;;5005106;28;20034;-58
2022/09/06 04:25:07;;;;;;;10.68;4.13;;;16.70;99.90;;;;;;5038114;28;20029;-59
2022/09/06 04:27:33;;;;;;;13.48;4.88;;;16.70;99.90;;;;;;5037791;28;20042;-58
2022/09/06 04:30:00;;;;;;;9.27;4.93;;;16.70;99.90;;;;;;5037887;28;20037;-58
2022/09/06 04:32:27;;;;;;;7.43;4.60;;;16.70;99.90;;;;;;5021191;28;20026;-58
2022/09/06 04:34:54;;;;;;;9.15;5.35;;;16.70;99.90;;;;;;5037956;28;20044;-58
2022/09/06 04:37:20;;;;;;;11.98;5.57;;;16.70;99.90;;;;;;5020927;28;20049;-58
2022/09/06 04:39:47;;;;;;;10.98;5.13;;;16.70;99.90;;;;;;5037376;28;20060;-58
2022/09/06 04:42:14;;;;;;;17.90;5.82;;;16.70;99.90;;;;;;5037867;28;20025;-59
2022/09/06 04:44:41;;;;;;;12.77;5.47;;;16.70;99.90;;;;;;5036610;28;20061;-58
2022/09/06 04:47:13;;;;;;;7.13;5.35;;;16.70;99.90;;;;;;5037514;28;20100;-57
2022/09/06 04:49:41;;;;;;;7.40;4.60;;;16.70;99.90;;;;;;5018160;28;20057;-58
2022/09/06 04:52:07;;;;;;;15.60;5.53;;;16.70;99.90;;;;;;5003091;28;20056;-59
2022/09/06 04:54:34;;;;;;;12.07;5.82;;;16.70;99.90;;;;;;5037053;28;20037;-58
2022/09/06 04:57:01;;;;;;;10.05;5.13;;;16.70;99.90;;;;;;5037277;28;20053;-60
2022/09/06 04:59:28;;;;;;;9.15;5.10;;;16.70;99.90;;;;;;5037328;28;20058;-56
2022/09/06 05:01:55;;;;;;;9.88;6.25;;;16.70;99.90;;;;;;5004195;28;20045;-59
2022/09/06 05:04:28;;;;;;;11.10;5.20;;;16.70;99.90;;;;;;5065043;28;20388;-60
2022/09/06 05:07:05;;;;;;;9.88;5.55;;;16.70;99.90;;;;;;5065139;28;20053;-60
2022/09/06 05:09:32;;;;;;;13.15;5.95;;;16.70;99.90;;;;;;5065061;28;20076;-59
2022/09/06 05:11:59;;;;;;;9.98;5.70;;;16.70;99.90;;;;;;5065075;28;20106;-59
2022/09/06 05:14:26;;;;;;;16.35;6.43;;;16.70;99.90;;;;;;5065020;28;20068;-59
2022/09/06 05:16:53;;;;;;;20.13;6.78;;;16.80;99.90;;;;;;5065106;28;20052;-60
2022/09/06 05:19:20;;;;;;;13.07;7.05;;;16.70;99.90;;;;;;5064709;28;20044;-58
2022/09/06 05:21:47;;;;;;;12.90;6.05;;;16.80;99.90;;;;;;5063863;28;20094;-60
2022/09/06 05:24:13;;;;;;;11.48;5.95;;;16.70;99.90;;;;;;5064785;28;20341;-60
2022/09/06 05:26:40;;;;;;;8.73;5.75;;;16.80;99.90;;;;;;5064450;28;20147;-60
2022/09/06 05:29:07;;;;;;;12.73;6.88;;;16.80;99.90;;;;;;5062752;28;20056;-60
2022/09/06 05:31:34;;;;;;;7.10;5.07;;;16.80;99.90;;;;;;5056440;28;20557;-60
2022/09/06 05:34:01;;;;;;;15.38;7.07;;;16.80;99.90;;;;;;5063582;28;20047;-60
2022/09/06 05:36:29;;;;;;;21.38;7.65;;;16.80;99.90;;;;;;5063440;28;20052;-60
2022/09/06 05:38:56;;;;;;;10.02;5.93;;;16.80;99.90;;;;;;5053079;28;20072;-60
2022/09/06 05:41:22;;;;;;;18.42;6.68;;;16.80;99.90;;;;;;5062644;28;20132;-59
2022/09/06 05:43:49;;;;;;;15.68;6.40;;;16.80;99.90;;;;;;5064314;28;20091;-60
2022/09/06 05:46:16;;;;;;;12.40;6.65;;;16.80;99.90;;;;;;5063388;28;20551;-59
2022/09/06 05:48:43;;;;;;;15.77;6.32;;;16.80;99.90;;;;;;5064368;28;20127;-59
2022/09/06 05:51:11;;;;;;;13.15;6.60;;;16.80;99.90;;;;;;5064023;28;20117;-59
2022/09/06 05:53:39;;;;;;;13.20;5.82;;;16.80;99.90;;;;;;5064234;28;20052;-58
2022/09/06 05:56:06;;;;;;;18.23;6.07;;;16.90;99.90;;;;;;5064198;28;20124;-59
2022/09/06 05:58:33;;;;;;;10.75;6.20;;;16.90;99.90;;;;;;5063898;28;20083;-60
2022/09/06 06:01:20;;;;;;;10.10;6.28;;;16.90;99.90;;;;;;5064355;28;20174;-60
2022/09/06 06:03:54;;;;;;;19.50;6.65;;;17.00;99.90;;;;;;5063873;28;20049;-60
2022/09/06 06:06:21;;;;;;;10.95;5.50;;;17.00;99.90;;;;;;5064024;28;20049;-60
2022/09/06 06:08:47;;;;;;;21.50;5.72;;;17.00;99.90;;;;;;5064154;28;20080;-63
2022/09/06 06:11:15;;;;;;;17.73;5.78;;;17.10;99.90;;;;;;5062299;28;20066;-60
2022/09/06 06:13:42;;;;;;;11.95;5.28;;;17.10;99.90;;;;;;5062783;28;20080;-60
2022/09/06 06:16:10;;;;;;;15.50;5.72;;;17.20;99.90;;;;;;5048770;28;20471;-60
2022/09/06 06:18:37;;;;;;;12.90;5.63;;;17.20;99.90;;;;;;5050778;28;20350;-59
2022/09/06 06:21:07;;;;;;;9.95;4.80;;;17.30;99.90;;;;;;5050443;28;20068;-60
2022/09/06 06:23:34;;;;;;;19.08;5.63;;;17.30;99.90;;;;;;5049770;28;20087;-60
2022/09/06 06:26:00;;;;;;;21.05;5.63;;;17.40;99.90;;;;;;5050305;28;20081;-65
2022/09/06 06:28:27;;;;;;;19.13;6.25;;;17.50;99.90;;;;;;5048950;28;20136;-60
2022/09/06 06:30:54;;;;;;;16.05;6.25;;;17.50;99.90;;;;;;5049936;28;20074;-60
2022/09/06 06:33:21;;;;;;;19.85;5.47;;;17.60;99.90;;;;;;5049354;28;20045;-61
2022/09/06 06:36:01;;;;;;;13.07;5.47;;;17.60;99.90;;;;;;5049133;28;20654;-60
2022/09/06 06:38:32;;;;;;;14.90;5.60;;;17.70;99.90;;;;;;5047155;28;20076;-61
2022/09/06 06:40:59;;;;;;;16.55;6.22;;;17.80;99.90;;;;;;5037609;28;20550;-61
2022/09/06 06:43:36;;;;;;;18.52;6.03;;;17.80;99.90;;;;;;5048808;28;20508;-61
2022/09/06 06:46:08;;;;;;;16.10;6.03;;;17.80;99.90;;;;;;5047851;28;20486;-60
2022/09/06 06:48:35;;;;;;;15.32;6.60;;;17.90;99.90;;;;;;5047386;28;20053;-60
2022/09/06 06:51:02;;;;;;;11.43;5.50;;;17.90;99.90;;;;;;5048057;28;20049;-60
2022/09/06 06:53:29;;;;;;;11.90;5.13;;;17.90;99.90;;;;;;5046089;28;20128;-60
2022/09/06 06:55:56;;;;;;;17.95;5.47;;;17.90;99.90;;;;;;5048057;28;20041;-60
2022/09/06 06:58:23;;;;;;;10.65;5.93;;;18.00;99.90;;;;;;5047797;28;20137;-59
2022/09/06 07:00:50;;;;;;;13.98;5.10;;;18.10;99.90;;;;;;5049183;28;20084;-57
2022/09/06 07:03:17;;;;;;;17.65;5.43;;;18.10;99.90;;;;;;5048830;28;20060;-58
2022/09/06 07:05:45;;;;;;;21.08;6.40;;;18.20;99.90;;;;;;5049580;28;20432;-59
2022/09/06 07:08:32;;;;;;;14.43;4.60;;;18.30;99.90;;;;;;5029051;28;20053;-59
2022/09/06 07:10:59;;;;;;;16.90;5.85;;;18.30;99.90;;;;;;5047711;28;20514;-59
2022/09/06 07:13:26;;;;;;;18.55;5.45;;;18.40;99.90;;;;;;5048820;28;20458;-59
2022/09/06 07:16:09;;;;;;;13.45;4.55;;;18.40;99.90;;;;;;5049233;28;20087;-60
2022/09/06 07:18:40;;;;;;;17.17;5.60;;;18.40;99.90;;;;;;5041483;28;20048;-61
2022/09/06 07:21:17;;;;;;;22.45;5.70;;;18.50;99.90;;;;;;5048896;28;20080;-59
2022/09/06 07:24:00;;;;;;;18.42;4.50;;;18.50;99.90;;;;;;5042903;28;20522;-59
2022/09/06 07:26:29;;;;;;;21.38;7.45;;;18.50;99.90;;;;;;5048060;28;20076;-60
2022/09/06 07:28:58;;;;;;;15.40;4.78;;;18.60;99.90;;;;;;5048391;28;20110;-56
2022/09/06 07:31:25;;;;;;;15.32;4.50;;;18.70;99.90;;;;;;5047514;28;20072;-60
2022/09/06 07:34:13;;;;;;;12.85;4.47;;;18.70;99.90;;;;;;5042879;28;20063;-60
2022/09/06 07:36:40;;;;;;;13.93;3.78;;;18.70;99.90;;;;;;5048728;28;20045;-59
2022/09/06 07:39:06;;;;;;;16.25;3.92;;;18.60;99.90;;;;;;5048566;28;20076;-58
2022/09/06 07:41:33;;;;;;;25.75;6.05;;;18.70;99.90;;;;;;5047969;28;20473;-59
2022/09/06 07:44:00;;;;;;;18.70;6.55;;;18.70;99.90;;;;;;5045356;28;20080;-59
2022/09/06 07:46:27;;;;;;;21.85;3.83;;;18.80;99.90;;;;;;5046819;28;20052;-59
2022/09/06 07:48:54;;;;;;;15.98;4.50;;;18.80;99.90;;;;;;5046619;28;20114;-59
2022/09/06 07:51:21;;;;;;;15.35;3.35;;;18.90;99.90;;;;;;5046814;28;20044;-59
2022/09/06 07:53:54;;;;;;;18.85;5.20;;;18.90;99.90;;;;;;5046882;28;20052;-59
2022/09/06 07:56:40;;;;;;;16.17;3.70;;;19.00;99.90;;;;;;5042830;28;20506;-60
2022/09/06 07:59:08;;;;;;;9.48;3.03;;;19.20;99.90;;;;;;5052311;28;20540;-59
2022/09/06 08:01:38;;;;;;;24.13;3.92;;;19.20;99.90;;;;;;5047218;28;20045;-59
2022/09/06 08:04:09;;;;;;;14.75;3.53;;;19.30;99.90;;;;;;5048344;28;20080;-60
2022/09/06 08:06:37;;;;;;;20.52;2.85;;;19.30;99.90;;;;;;5048450;28;20140;-59
2022/09/06 08:09:24;;;;;;;12.93;2.45;;;19.40;99.90;;;;;;5048346;28;20043;-59
2022/09/06 08:11:51;;;;;;;21.67;5.43;;;19.40;99.90;;;;;;5048302;28;20095;-58
2022/09/06 08:14:19;;;;;;;28.63;4.38;;;19.50;99.90;;;;;;5048533;28;20049;-59
2022/09/06 08:16:46;;;;;;;13.27;3.55;;;19.50;99.90;;;;;;5047163;28;20067;-60
2022/09/06 08:19:12;;;;;;;13.27;2.35;;;19.60;99.90;;;;;;5048287;28;20517;-59
2022/09/06 08:21:39;;;;;;;8.43;2.83;;;19.70;99.90;;;;;;5046564;28;20091;-59
2022/09/06 08:24:08;;;;;;;22.75;3.08;;;19.70;99.90;;;;;;5048475;28;20076;-59
2022/09/06 08:26:38;;;;;;;18.25;2.85;;;19.70;99.90;;;;;;5047735;28;20076;-60
2022/09/06 08:29:06;;;;;;;21.77;3.92;;;19.70;99.90;;;;;;5048213;28;20076;-59
2022/09/06 08:31:34;;;;;;;16.00;2.83;;;19.60;99.90;;;;;;5046864;28;20103;-59
2022/09/06 08:34:01;;;;;;;11.40;2.00;;;19.60;99.90;;;;;;5048118;28;20049;-58
2022/09/06 08:36:29;;;;;;;15.45;2.80;;;19.60;99.90;;;;;;5046631;28;20080;-59
2022/09/06 08:38:59;;;;;;;19.02;2.97;;;19.60;99.90;;;;;;5046940;28;20056;-59
2022/09/06 08:41:44;;;;;;;13.15;2.40;;;19.60;99.90;;;;;;5052870;28;20048;-59
2022/09/06 08:44:26;;;;;;;12.15;1.88;;;19.60;99.90;;;;;;5047974;28;20052;-58
2022/09/06 08:47:17;;;;;;;35.03;4.57;;;19.50;99.90;;;;;;5046343;28;20045;-59
2022/09/06 08:50:04;;;;;;;7.60;2.53;;;19.50;99.90;;;;;;5046158;28;20041;-59
2022/09/06 08:52:43;;;;;;;13.40;2.67;;;19.60;99.90;;;;;;5046579;28;20103;-59
2022/09/06 08:55:45;;;;;;;19.27;2.70;;;19.60;99.90;;;;;;5037358;28;20140;-60
2022/09/06 08:58:44;;;;;;;12.45;3.22;;;19.70;99.90;;;;;;5046746;28;20084;-60
2022/09/06 09:01:16;;;;;;;22.17;3.40;;;19.70;99.90;;;;;;5047639;28;20069;-58
2022/09/06 09:03:43;;;;;;;11.18;2.67;;;19.80;99.90;;;;;;5047033;28;20663;-59
2022/09/06 09:06:10;;;;;;;22.38;2.95;;;19.80;99.90;;;;;;5046530;28;20052;-59
2022/09/06 09:08:49;;;;;;;16.38;2.60;;;19.80;99.90;;;;;;5047621;28;20068;-59
2022/09/06 09:11:17;;;;;;;12.93;2.03;;;19.70;99.90;;;;;;5047482;28;20076;-59
2022/09/06 09:14:09;;;;;;;8.95;3.30;;;19.70;99.90;;;;;;5046163;28;20044;-59
2022/09/06 09:16:35;;;;;;;17.13;2.45;;;19.60;99.90;;;;;;5047761;28;20045;-59
2022/09/06 09:19:03;;;;;;;15.43;3.55;;;19.60;99.90;;;;;;5047511;28;20415;-59
2022/09/06 09:21:32;;;;;;;15.57;3.25;;;19.60;99.90;;;;;;5047958;28;20747;-59
2022/09/06 09:24:04;;;;;;;11.15;2.50;;;19.60;99.90;;;;;;5046253;28;20075;-59
2022/09/06 09:26:41;;;;;;;12.73;2.25;;;19.70;99.90;;;;;;5036893;28;20527;-60
2022/09/06 09:29:12;;;;;;;14.48;2.38;;;19.70;99.90;;;;;;5043995;28;20088;-59
2022/09/06 09:31:48;;;;;;;10.63;1.80;;;19.70;99.90;;;;;;5036363;28;20128;-59
2022/09/06 09:34:32;;;;;;;9.57;2.35;;;19.80;99.90;;;;;;5045172;28;20048;-59
2022/09/06 09:37:22;;;;;;;8.18;2.05;;;19.90;99.90;;;;;;5037850;28;20053;-57
2022/09/06 09:40:30;;;;;;;13.85;2.67;;;19.80;99.90;;;;;;5047302;28;20503;-59
2022/09/06 09:43:17;;;;;;;14.43;2.63;;;20.00;99.90;;;;;;5046205;28;20567;-58
2022/09/06 09:45:44;;;;;;;20.02;2.80;;;20.00;99.90;;;;;;5041279;28;20128;-59
2022/09/06 09:48:29;;;;;;;11.60;2.90;;;20.00;99.90;;;;;;5046226;28;20048;-59
2022/09/06 09:50:56;;;;;;;13.88;3.13;;;20.00;99.90;;;;;;5043328;28;20080;-59
2022/09/06 09:53:23;;;;;;;7.40;1.92;;;20.00;99.90;;;;;;5049965;28;20056;-60
2022/09/06 09:55:56;;;;;;;13.18;2.85;;;20.10;99.90;;;;;;5049877;28;20542;-60
2022/09/06 09:58:28;;;;;;;12.27;2.03;;;20.20;99.90;;;;;;5033504;28;20103;-60
2022/09/06 10:01:32;;;;;;;9.70;2.00;;;20.30;99.90;;;;;;5050878;28;20044;-59
2022/09/06 10:04:06;;;;;;;17.02;3.65;;;20.20;99.90;;;;;;5007755;28;20046;-60
2022/09/06 10:06:53;;;;;;;11.32;2.03;;;20.20;99.90;;;;;;5049430;28;20526;-59
2022/09/06 10:09:37;;;;;;;13.20;2.92;;;20.20;99.90;;;;;;5049808;28;20095;-60
2022/09/06 10:12:04;;;;;;;13.07;2.92;;;20.30;99.90;;;;;;5033310;28;20049;-59
2022/09/06 10:14:38;;;;;;;8.90;1.83;;;20.30;99.90;;;;;;5050474;28;20546;-60
2022/09/06 10:17:05;;;;;;;11.80;2.17;;;20.40;99.90;;;;;;5050810;28;20049;-60
2022/09/06 10:19:42;;;;;;;7.38;2.42;;;20.40;99.90;;;;;;5049328;28;20123;-59
2022/09/06 10:22:19;;;;;;;13.50;2.80;;;20.40;99.90;;;;;;5032746;28;20056;-60
2022/09/06 10:25:12;;;;;;;11.52;2.15;;;20.40;99.90;;;;;;5042547;28;20071;-59
2022/09/06 10:28:06;;;;;;;7.57;1.98;;;20.50;99.90;;;;;;5049278;28;20072;-59
2022/09/06 10:30:59;;;;;;;12.80;2.85;;;20.40;99.90;;;;;;5049285;28;20060;-58
2022/09/06 10:33:46;;;;;;;8.18;2.42;;;20.50;99.90;;;;;;5049463;28;20040;-59
2022/09/06 10:36:14;;;;;;;14.75;2.65;;;20.50;99.90;;;;;;5030002;28;20106;-59
2022/09/06 10:38:54;;;;;;;16.38;3.10;;;20.60;99.90;;;;;;5047612;28;20132;-59
2022/09/06 10:41:50;;;;;;;13.10;2.45;;;20.80;99.90;;;;;;5047427;28;20526;-59
2022/09/06 10:44:22;;;;;;;13.80;2.97;;;20.80;99.90;;;;;;5038414;28;20049;-60
2022/09/06 10:46:50;;;;;;;7.68;2.30;;;20.90;99.90;;;;;;5046970;28;20088;-60
2022/09/06 10:49:17;;;;;;;8.95;2.30;;;20.80;99.90;;;;;;5037628;28;20605;-59
2022/09/06 10:51:48;;;;;;;12.27;2.90;;;20.90;99.90;;;;;;5046842;28;20087;-59
2022/09/06 10:54:22;;;;;;;9.60;2.40;;;21.00;99.90;;;;;;5047313;28;20072;-59
2022/09/06 10:56:57;;;;;;;;;;;21.10;99.90;;;;;;5047811;28;20049;-60
2022/09/06 10:59:27;;;;;;;13.07;3.75;;;21.10;99.90;;;;;;5047412;28;19925;-59
2022/09/06 11:02:14;;;;;;;16.70;3.08;;;21.10;99.90;;;;;;5046697;28;20045;-59
2022/09/06 11:04:43;;;;;;;10.88;2.35;;;21.10;99.90;;;;;;5049113;28;20056;-61
2022/09/06 11:07:33;;;;;;;13.05;3.40;;;21.10;99.90;;;;;;5048176;28;20665;-60
2022/09/06 11:10:20;;;;;;;14.57;2.40;;;21.10;99.90;;;;;;5049749;28;20049;-59
2022/09/06 11:12:58;;;;;;;8.77;2.92;;;21.20;99.90;;;;;;5047699;28;20539;-61
2022/09/06 11:15:26;;;;;;;17.88;2.88;;;21.20;99.90;;;;;;5048352;28;20049;-60
2022/09/06 11:18:00;;;;;;;13.10;2.50;;;21.30;99.90;;;;;;5048381;28;20124;-59
2022/09/06 11:20:42;;;;;;;12.75;2.65;;;21.30;99.90;;;;;;5049652;28;20127;-59
2022/09/06 11:23:51;;;;;;;20.58;2.65;;;21.30;99.90;;;;;;5031777;28;20068;-61
2022/09/06 11:26:39;;;;;;;12.38;2.22;;;21.30;99.90;;;;;;5043720;28;20087;-61
2022/09/06 11:29:08;;;;;;;22.17;4.00;;;21.30;99.90;;;;;;5041453;28;20083;-60
2022/09/06 11:31:54;;;;;;;18.63;3.03;;;21.40;99.90;;;;;;5047659;28;20491;-60
2022/09/06 11:34:44;;;;;;;10.57;2.03;;;21.50;99.90;;;;;;5044602;28;20049;-60
2022/09/06 11:37:26;;;;;;;13.95;2.53;;;21.40;99.90;;;;;;5039863;28;20075;-60
2022/09/06 11:40:05;;;;;;;14.70;3.15;;;21.40;99.90;;;;;;5049049;28;20077;-60
2022/09/06 11:42:52;;;;;;;9.75;2.55;;;21.40;99.90;;;;;;5045045;28;20071;-60
2022/09/06 11:45:20;;;;;;;10.80;2.60;;;21.40;99.90;;;;;;5047386;28;20504;-60
2022/09/06 11:47:48;;;;;;;16.63;2.78;;;21.50;99.90;;;;;;5047634;28;20048;-60
2022/09/06 11:50:21;;;;;;;10.80;2.72;;;21.50;99.90;;;;;;5048881;28;20508;-59
2022/09/06 11:52:59;;;;;;;21.48;4.32;;;21.50;99.90;;;;;;5048602;28;20080;-59
2022/09/06 11:55:36;;;;;;;18.27;3.58;;;21.50;99.90;;;;;;5048835;28;20048;-59
2022/09/06 11:58:25;;;;;;;16.13;3.30;;;21.50;99.90;;;;;;5047702;28;20102;-59
2022/09/06 12:01:10;;;;;;;12.48;2.17;;;21.60;99.90;;;;;;5040700;28;20516;-60
2022/09/06 12:03:49;;;;;;;14.43;2.20;;;21.60;99.90;;;;;;5048509;28;20117;-59
2022/09/06 12:06:41;;;;;;;22.02;3.95;;;21.70;99.90;;;;;;5046555;28;20059;-59
2022/09/06 12:09:30;;;;;;;17.75;3.85;;;21.80;99.90;;;;;;5048302;28;20041;-60
2022/09/06 12:11:57;;;;;;;9.88;2.45;;;21.90;99.90;;;;;;5048336;28;20088;-59
2022/09/06 12:14:38;;;;;;;16.13;2.45;;;22.10;99.90;;;;;;5048389;28;20118;-59
2022/09/06 12:17:06;;;;;;;22.10;3.13;;;22.10;99.90;;;;;;5048627;28;20119;-59
2022/09/06 12:19:52;;;;;;;13.00;2.03;;;22.20;99.90;;;;;;5048202;28;20086;-59
2022/09/06 12:25:17;;;;;;;5.90;2.00;;;22.60;99.90;;;;;;5045518;28;20549;-60
2022/09/06 12:27:54;;;;;;;10.65;1.73;;;22.80;99.90;;;;;;5038080;28;20115;-60
2022/09/06 12:30:34;;;;;;;10.57;1.95;;;22.80;99.90;;;;;;5047574;28;20095;-60
2022/09/06 12:33:16;;;;;;;14.05;2.55;;;22.80;99.90;;;;;;5049314;28;20530;-60
2022/09/06 12:35:42;;;;;;;10.52;2.88;;;22.70;99.90;;;;;;5048362;28;20125;-60
2022/09/06 12:38:26;;;;;;;13.13;2.35;;;22.60;99.90;;;;;;5049287;28;20072;-59
2022/09/06 12:40:57;;;;;;;12.27;2.40;;;22.70;99.90;;;;;;5048059;28;20045;-59
2022/09/06 12:43:24;;;;;;;13.68;2.78;;;22.70;99.90;;;;;;5047955;28;20041;-60
2022/09/06 12:45:51;;;;;;;10.00;2.53;;;22.70;99.90;;;;;;5046752;28;20684;-60
2022/09/06 12:48:26;;;;;;;16.38;3.00;;;22.80;99.90;;;;;;5046933;28;20516;-60
2022/09/06 12:51:04;;;;;;;8.43;1.60;;;22.80;99.90;;;;;;5045888;28;20036;-60
2022/09/06 12:53:33;;;;;;;12.50;2.08;;;23.00;99.90;;;;;;5036887;28;20140;-60
2022/09/06 12:56:07;;;;;;;11.73;2.50;;;23.00;99.90;;;;;;5047835;28;20045;-60
2022/09/06 12:58:35;;;;;;;9.05;2.95;;;23.10;99.90;;;;;;5037175;28;20115;-59
2022/09/06 13:01:12;;;;;;;12.32;2.45;;;23.20;99.90;;;;;;5047659;28;20106;-60
2022/09/06 13:03:44;;;;;;;11.68;1.98;;;23.20;99.90;;;;;;5046684;28;20096;-60
2022/09/06 13:06:17;;;;;;;8.63;1.58;;;23.20;99.90;;;;;;5030308;28;20087;-59
2022/09/06 13:08:52;;;;;;;6.95;1.83;;;23.20;99.90;;;;;;5046916;28;20045;-60
2022/09/06 13:11:23;;;;;;;9.02;2.20;;;23.20;99.90;;;;;;5045164;28;20467;-59